Capt Mark — WDF5784 — position and weather

sailwx.info

Track history (hours):
 
Tides and Currents Weather Stations Pressure Air Temp Water Temp Dewpoint Dewpoint Depression Visibility Wind Speed Wind Dir Waves Ship Positions

Capt Mark

Owner: CENTRAL BOAT RENTALS, BERWICK, LA. More information available from US FCC via Universal Licensing System and Coast Guard Vessel Documentation Center.

Last reported at 2018-Jul-14 13:29 UTC. Time now 2018-Jul-16 14:44 UTC.
Position N 29°33' W 090°46'.

Length 15 m; draft 2.5 m.

Type: Tug. MMSI: 367467170.

Date/timePositionNaut miles runAvg speedWind from/ knotsBaromVisibWave heightAir tempDewpointWater temp
2018-Jul-14 13:29N 29°33' W 090°46'3 5.6
2018-Jul-14 13:01N 29°34' W 090°43'3 5.6
2018-Jul-14 12:30N 29°31' W 090°42'2 0.0
2018-Jul-13 02:59N 29°30' W 090°43'3 6.9
2018-Jul-13 02:30N 29°33' W 090°42'2 3.8
2018-Jul-13 02:00N 29°35' W 090°43'2 4.5
2018-Jul-13 01:30N 29°37' W 090°42'3 6.1
2018-Jul-13 01:00N 29°35' W 090°39'  
2018-Jul-10 14:32N 30°23' W 086°56'1 5.9
2018-Jul-10 14:23N 30°23' W 086°55'2 5.9
2018-Jul-10 14:00N 30°24' W 086°53'3 5.8
2018-Jul-10 13:30N 30°24' W 086°49'3 5.8
2018-Jul-10 13:00N 30°24' W 086°46'14 4.4
2018-Jul-10 09:49N 30°26' W 086°30'2 4.0
2018-Jul-10 09:20N 30°26' W 086°28'1 4.1
2018-Jul-10 09:00N 30°26' W 086°26'2 3.9
2018-Jul-10 08:30N 30°26' W 086°24'2 4.1
2018-Jul-10 08:00N 30°26' W 086°22'  
2018-Jul-06 21:14N 30°26' W 086°19'2 7.5
2018-Jul-06 21:00N 30°26' W 086°21'4 7.5
2018-Jul-06 20:30N 30°26' W 086°25'4 7.4
2018-Jul-06 20:00N 30°26' W 086°29'10 6.8
2018-Jul-06 18:30N 30°24' W 086°41'3 6.7
2018-Jul-06 18:00N 30°24' W 086°45'3 6.9
2018-Jul-06 17:30N 30°24' W 086°49'3 6.9
2018-Jul-06 17:00N 30°24' W 086°53'189 5.2
2018-Jul-05 04:33N 29°34' W 090°23'1 5.8
2018-Jul-05 04:24N 29°33' W 090°24'2 6.3
2018-Jul-05 04:00N 29°33' W 090°27'3 6.5
2018-Jul-05 03:30N 29°34' W 090°31'4 6.4
2018-Jul-05 02:52N 29°35' W 090°35'2 6.1
2018-Jul-05 02:30N 29°35' W 090°38'3 6.6
2018-Jul-05 02:00N 29°36' W 090°41'2 4.7
2018-Jul-05 01:31N 29°35' W 090°43'2 4.1
2018-Jul-05 01:01N 29°34' W 090°45'3 5.9
2018-Jul-05 00:30N 29°32' W 090°48'4 6.6
2018-Jul-04 23:56N 29°32' W 090°52'3 6.7
2018-Jul-04 23:30N 29°33' W 090°55'  
Track history (hours):
 
Tides and Currents Weather Stations Pressure Air Temp Water Temp Dewpoint Dewpoint Depression Visibility Wind Speed Wind Dir Waves Ship Positions

Capt Mark

Owner: CENTRAL BOAT RENTALS, BERWICK, LA. More information available from US FCC via Universal Licensing System and Coast Guard Vessel Documentation Center.

Last reported at 2018-Jul-14 13:29 UTC. Time now 2018-Jul-16 14:44 UTC.
Position N 29°33' W 090°46'.

Length 15 m; draft 2.5 m.

Type: Tug. MMSI: 367467170.

Date/timePositionNaut miles runAvg speedWind from/ knotsBaromVisibWave heightAir tempDewpointWater temp
2018-Jul-14 13:29N 29°33' W 090°46'3 5.6
2018-Jul-14 13:01N 29°34' W 090°43'3 5.6
2018-Jul-14 12:30N 29°31' W 090°42'2 0.0
2018-Jul-13 02:59N 29°30' W 090°43'3 6.9
2018-Jul-13 02:30N 29°33' W 090°42'2 3.8
2018-Jul-13 02:00N 29°35' W 090°43'2 4.5
2018-Jul-13 01:30N 29°37' W 090°42'3 6.1
2018-Jul-13 01:00N 29°35' W 090°39'  
2018-Jul-10 14:32N 30°23' W 086°56'1 5.9
2018-Jul-10 14:23N 30°23' W 086°55'2 5.9
2018-Jul-10 14:00N 30°24' W 086°53'3 5.8
2018-Jul-10 13:30N 30°24' W 086°49'3 5.8
2018-Jul-10 13:00N 30°24' W 086°46'14 4.4
2018-Jul-10 09:49N 30°26' W 086°30'2 4.0
2018-Jul-10 09:20N 30°26' W 086°28'1 4.1
2018-Jul-10 09:00N 30°26' W 086°26'2 3.9
2018-Jul-10 08:30N 30°26' W 086°24'2 4.1
2018-Jul-10 08:00N 30°26' W 086°22'  
2018-Jul-06 21:14N 30°26' W 086°19'2 7.5
2018-Jul-06 21:00N 30°26' W 086°21'4 7.5
2018-Jul-06 20:30N 30°26' W 086°25'4 7.4
2018-Jul-06 20:00N 30°26' W 086°29'10 6.8
2018-Jul-06 18:30N 30°24' W 086°41'3 6.7
2018-Jul-06 18:00N 30°24' W 086°45'3 6.9
2018-Jul-06 17:30N 30°24' W 086°49'3 6.9
2018-Jul-06 17:00N 30°24' W 086°53'189 5.2
2018-Jul-05 04:33N 29°34' W 090°23'1 5.8
2018-Jul-05 04:24N 29°33' W 090°24'2 6.3
2018-Jul-05 04:00N 29°33' W 090°27'3 6.5
2018-Jul-05 03:30N 29°34' W 090°31'4 6.4
2018-Jul-05 02:52N 29°35' W 090°35'2 6.1
2018-Jul-05 02:30N 29°35' W 090°38'3 6.6
2018-Jul-05 02:00N 29°36' W 090°41'2 4.7
2018-Jul-05 01:31N 29°35' W 090°43'2 4.1
2018-Jul-05 01:01N 29°34' W 090°45'3 5.9
2018-Jul-05 00:30N 29°32' W 090°48'4 6.6
2018-Jul-04 23:56N 29°32' W 090°52'3 6.7
2018-Jul-04 23:30N 29°33' W 090°55'  

Dump ship's entire track history